createdAt,value
2024-03-29T00:00:07.601Z,0
2024-03-29T00:01:08.345Z,0
2024-03-29T00:02:09.525Z,0
2024-03-29T00:03:10.137Z,0
2024-03-29T00:04:10.851Z,0
2024-03-29T00:05:12.154Z,0
2024-03-29T00:06:11.861Z,0
2024-03-29T00:07:12.817Z,0
2024-03-29T00:08:13.581Z,0
2024-03-29T00:09:14.529Z,0
2024-03-29T00:10:15.248Z,0
2024-03-29T00:11:16.181Z,0
2024-03-29T00:12:16.959Z,0
2024-03-29T00:13:17.585Z,0
2024-03-29T00:14:18.123Z,0
2024-03-29T00:15:18.647Z,0
2024-03-29T00:16:19.528Z,0
2024-03-29T00:17:20.235Z,0
2024-03-29T00:18:21.139Z,0
2024-03-29T00:19:21.836Z,0
2024-03-29T00:20:23.106Z,0
2024-03-29T00:21:23.259Z,0
2024-03-29T00:22:23.788Z,0
2024-03-29T00:23:24.183Z,0
2024-03-29T00:24:25.337Z,0
2024-03-29T00:25:25.854Z,0
2024-03-29T00:26:26.770Z,0
2024-03-29T00:27:27.266Z,0
2024-03-29T00:28:27.958Z,0
2024-03-29T00:29:28.288Z,0
2024-03-29T00:30:29.421Z,0
2024-03-29T00:31:30.316Z,0
2024-03-29T00:32:30.873Z,0
2024-03-29T00:33:31.974Z,0
2024-03-29T00:34:32.522Z,0
2024-03-29T00:35:33.492Z,0
2024-03-29T00:36:34.396Z,0
2024-03-29T00:37:34.912Z,0
2024-03-29T00:38:35.541Z,0
2024-03-29T00:39:36.490Z,0
2024-03-29T00:40:37.416Z,0
2024-03-29T00:41:38.159Z,0
2024-03-29T00:42:38.506Z,0
2024-03-29T00:43:38.885Z,0
2024-03-29T00:44:39.573Z,0
2024-03-29T00:45:49.480Z,0
2024-03-29T00:46:40.779Z,0
2024-03-29T00:47:41.803Z,0
2024-03-29T00:48:42.781Z,0
2024-03-29T00:49:43.488Z,0
2024-03-29T00:50:44.078Z,0
2024-03-29T00:51:46.536Z,0
2024-03-29T00:52:45.221Z,0
2024-03-29T00:53:46.063Z,0
2024-03-29T00:54:47.298Z,0
2024-03-29T00:55:48.231Z,0
2024-03-29T00:56:48.312Z,0
2024-03-29T00:57:49.007Z,0
2024-03-29T00:58:49.707Z,0
2024-03-29T00:59:50.411Z,0
2024-03-29T01:00:50.963Z,0
2024-03-29T01:01:51.875Z,0
2024-03-29T01:02:52.860Z,0
2024-03-29T01:03:52.821Z,0
2024-03-29T01:04:53.324Z,0
2024-03-29T01:05:54.263Z,0
2024-03-29T01:06:54.166Z,0
2024-03-29T01:07:54.696Z,0
2024-03-29T01:08:55.589Z,0
2024-03-29T01:09:56.510Z,0
2024-03-29T01:10:57.317Z,0
2024-03-29T01:11:58.245Z,0
2024-03-29T01:12:59.165Z,0
2024-03-29T01:13:59.436Z,0
2024-03-29T01:15:00.338Z,0
2024-03-29T01:16:01.498Z,0
2024-03-29T01:17:01.621Z,0
2024-03-29T01:18:01.383Z,0
2024-03-29T01:19:02.307Z,0
2024-03-29T01:20:03.231Z,0
2024-03-29T01:21:04.183Z,0
2024-03-29T01:22:04.113Z,0
2024-03-29T01:23:05.150Z,0
2024-03-29T01:24:05.814Z,0
2024-03-29T01:25:06.559Z,0
2024-03-29T01:26:07.460Z,0
2024-03-29T01:27:07.968Z,0
2024-03-29T01:28:08.496Z,0
2024-03-29T01:29:09.491Z,0
2024-03-29T01:30:10.403Z,0
2024-03-29T01:31:11.572Z,0
2024-03-29T01:32:11.993Z,0
2024-03-29T01:33:12.733Z,0
2024-03-29T01:34:13.298Z,0
2024-03-29T01:35:14.479Z,0
2024-03-29T01:36:15.487Z,0
2024-03-29T01:37:15.361Z,0
2024-03-29T01:38:16.655Z,0
2024-03-29T01:39:19.757Z,0
2024-03-29T01:40:16.926Z,0
2024-03-29T01:41:16.743Z,0
2024-03-29T01:42:17.904Z,0
2024-03-29T01:43:18.618Z,0
2024-03-29T01:44:19.427Z,0
2024-03-29T01:45:19.357Z,0
2024-03-29T01:46:20.272Z,0
2024-03-29T01:47:20.635Z,0
2024-03-29T01:48:21.571Z,0
2024-03-29T01:49:22.500Z,0
2024-03-29T01:50:22.251Z,0
2024-03-29T01:51:23.231Z,0
2024-03-29T01:52:23.977Z,0
2024-03-29T01:53:24.269Z,0
2024-03-29T01:54:24.703Z,0
2024-03-29T01:55:25.626Z,0
2024-03-29T01:56:26.539Z,0
2024-03-29T01:57:26.447Z,0
2024-03-29T01:58:26.956Z,0
2024-03-29T01:59:27.866Z,0
2024-03-29T02:00:28.166Z,0
2024-03-29T02:01:29.272Z,0
2024-03-29T02:02:29.195Z,0
2024-03-29T02:03:30.120Z,0
2024-03-29T02:04:30.517Z,0
2024-03-29T02:05:30.876Z,0
2024-03-29T02:06:31.641Z,0
2024-03-29T02:07:32.359Z,0
2024-03-29T02:08:33.525Z,0
2024-03-29T02:09:33.444Z,0
2024-03-29T02:10:34.579Z,0
2024-03-29T02:11:35.268Z,0
2024-03-29T02:12:35.794Z,0
2024-03-29T02:13:36.547Z,0
2024-03-29T02:14:37.665Z,0
2024-03-29T02:15:38.424Z,0
2024-03-29T02:16:39.389Z,0
2024-03-29T02:17:40.013Z,0
2024-03-29T02:18:41.147Z,0
2024-03-29T02:19:40.481Z,0
2024-03-29T02:20:54.590Z,0
2024-03-29T02:22:43.384Z,0
2024-03-29T02:23:43.075Z,0
2024-03-29T02:24:43.973Z,0
2024-03-29T02:25:44.126Z,0
2024-03-29T02:26:43.876Z,0
2024-03-29T02:27:44.390Z,0
2024-03-29T02:28:45.119Z,0
2024-03-29T02:29:45.869Z,0
2024-03-29T02:30:46.955Z,0
2024-03-29T02:31:46.533Z,0
2024-03-29T02:32:47.645Z,0
2024-03-29T02:33:48.365Z,0
2024-03-29T02:34:48.827Z,0
2024-03-29T02:35:49.565Z,0
2024-03-29T02:36:50.728Z,0
2024-03-29T02:37:50.647Z,0
2024-03-29T02:38:51.607Z,0
2024-03-29T02:39:52.521Z,0
2024-03-29T02:40:53.673Z,0
2024-03-29T02:41:53.611Z,0
2024-03-29T02:42:54.134Z,0
2024-03-29T02:43:55.074Z,0
2024-03-29T02:44:55.869Z,0
2024-03-29T02:45:56.377Z,0
2024-03-29T02:46:57.096Z,0
2024-03-29T02:47:58.215Z,0
2024-03-29T02:48:58.932Z,0
2024-03-29T02:49:59.831Z,0
2024-03-29T02:50:59.954Z,0
2024-03-29T02:51:59.715Z,0
2024-03-29T02:53:00.202Z,0
2024-03-29T02:54:00.724Z,0
2024-03-29T02:55:01.145Z,0
2024-03-29T02:56:01.671Z,0
2024-03-29T02:57:02.389Z,0
2024-03-29T02:58:03.105Z,0
2024-03-29T02:59:03.685Z,0
2024-03-29T03:00:04.609Z,0
2024-03-29T03:01:05.495Z,0
2024-03-29T03:02:06.044Z,0
2024-03-29T03:03:07.188Z,0
2024-03-29T03:04:06.954Z,0
2024-03-29T03:05:07.964Z,0
2024-03-29T03:06:07.480Z,0
2024-03-29T03:07:08.628Z,0
2024-03-29T03:08:08.852Z,0
2024-03-29T03:09:08.341Z,0
2024-03-29T03:10:09.275Z,0
2024-03-29T03:11:10.119Z,0
2024-03-29T03:12:10.847Z,0
2024-03-29T03:13:16.406Z,0
2024-03-29T03:14:12.223Z,0
2024-03-29T03:15:12.302Z,0
2024-03-29T03:16:13.217Z,0
2024-03-29T03:17:12.879Z,0
2024-03-29T03:18:14.179Z,0
2024-03-29T03:19:16.449Z,0
2024-03-29T03:20:13.746Z,0
2024-03-29T03:21:14.455Z,0
2024-03-29T03:22:15.591Z,0
2024-03-29T03:23:15.718Z,0
2024-03-29T03:24:15.612Z,0
2024-03-29T03:25:16.168Z,0
2024-03-29T03:26:17.213Z,0
2024-03-29T03:27:17.413Z,0
2024-03-29T03:28:17.435Z,0
2024-03-29T03:29:18.054Z,0
2024-03-29T03:30:19.352Z,0
2024-03-29T03:31:19.043Z,0
2024-03-29T03:32:19.868Z,0
2024-03-29T03:33:20.896Z,0
2024-03-29T03:34:20.635Z,0
2024-03-29T03:35:21.126Z,0
2024-03-29T03:36:21.997Z,0
2024-03-29T03:37:22.965Z,0
2024-03-29T03:38:23.502Z,0
2024-03-29T03:39:24.203Z,0
2024-03-29T03:40:25.457Z,0
2024-03-29T03:41:26.300Z,0
2024-03-29T03:42:27.044Z,0
2024-03-29T03:43:27.764Z,0
2024-03-29T03:44:28.683Z,0
2024-03-29T03:45:29.101Z,0
2024-03-29T03:46:30.016Z,0
2024-03-29T03:47:29.955Z,0
2024-03-29T03:48:31.285Z,0
2024-03-29T03:49:30.799Z,0
2024-03-29T03:50:31.910Z,0
2024-03-29T03:51:31.799Z,0
2024-03-29T03:52:32.360Z,0
2024-03-29T03:53:33.479Z,0
2024-03-29T03:54:34.211Z,0
2024-03-29T03:55:34.902Z,0
2024-03-29T03:56:35.824Z,0
2024-03-29T03:57:36.575Z,0
2024-03-29T03:58:37.479Z,0
2024-03-29T03:59:38.707Z,0
2024-03-29T04:00:38.605Z,0
2024-03-29T04:01:39.533Z,0
2024-03-29T04:02:39.697Z,0
2024-03-29T04:03:39.628Z,0
2024-03-29T04:04:40.139Z,0
2024-03-29T04:05:40.965Z,0
2024-03-29T04:06:41.274Z,0
2024-03-29T04:07:44.429Z,0
2024-03-29T04:08:43.014Z,0
2024-03-29T04:09:44.135Z,0
2024-03-29T04:10:44.028Z,0
2024-03-29T04:11:45.176Z,0
2024-03-29T04:12:45.092Z,0
2024-03-29T04:13:46.007Z,0
2024-03-29T04:14:46.953Z,0
2024-03-29T04:15:47.434Z,0
2024-03-29T04:16:48.329Z,0
2024-03-29T04:17:48.829Z,0
2024-03-29T04:18:49.306Z,0
2024-03-29T04:19:50.022Z,0
2024-03-29T04:20:50.513Z,0
2024-03-29T04:21:51.411Z,0
2024-03-29T04:22:52.188Z,0
2024-03-29T04:23:53.031Z,0
2024-03-29T04:24:53.747Z,0
2024-03-29T04:25:54.138Z,0
2024-03-29T04:26:55.264Z,0
2024-03-29T04:27:55.155Z,0
2024-03-29T04:28:55.734Z,0
2024-03-29T04:29:56.300Z,0
2024-03-29T04:30:56.964Z,0
2024-03-29T04:31:57.966Z,0
2024-03-29T04:32:58.873Z,0
2024-03-29T04:33:59.556Z,0
2024-03-29T04:35:00.680Z,0
2024-03-29T04:36:00.952Z,0
2024-03-29T04:37:01.695Z,0
2024-03-29T04:38:02.842Z,0
2024-03-29T04:39:02.781Z,0
2024-03-29T04:40:03.918Z,0
2024-03-29T04:41:04.612Z,0
2024-03-29T04:42:05.588Z,0
2024-03-29T04:43:06.284Z,0
2024-03-29T04:44:06.868Z,0
2024-03-29T04:45:07.592Z,0
2024-03-29T04:46:07.969Z,0
2024-03-29T04:47:08.879Z,0
2024-03-29T04:48:09.399Z,0
2024-03-29T04:49:10.303Z,0
2024-03-29T04:50:11.044Z,0
2024-03-29T04:51:11.800Z,0
2024-03-29T04:52:12.286Z,0
2024-03-29T04:53:13.316Z,0
2024-03-29T04:54:14.257Z,0
2024-03-29T04:55:15.221Z,0
2024-03-29T04:56:15.697Z,0
2024-03-29T04:57:16.809Z,0
2024-03-29T04:58:16.539Z,0
2024-03-29T04:59:17.473Z,0
2024-03-29T05:00:17.518Z,0
2024-03-29T05:01:18.463Z,0
2024-03-29T05:02:19.270Z,0
2024-03-29T05:03:20.021Z,0
2024-03-29T05:04:20.355Z,5.63
2024-03-29T05:05:21.096Z,5.63
2024-03-29T05:06:21.717Z,5.63
2024-03-29T05:07:22.623Z,5.63
2024-03-29T05:08:24.204Z,5.63
2024-03-29T05:09:23.904Z,5.63
2024-03-29T05:10:24.702Z,5.63
2024-03-29T05:11:25.600Z,5.63
2024-03-29T05:12:26.334Z,5.63
2024-03-29T05:13:27.270Z,11.25
2024-03-29T05:14:27.443Z,11.25
2024-03-29T05:15:28.181Z,11.25
2024-03-29T05:16:29.045Z,11.25
2024-03-29T05:17:28.901Z,11.25
2024-03-29T05:18:30.031Z,16.88
2024-03-29T05:19:29.757Z,16.88
2024-03-29T05:20:30.625Z,16.88
2024-03-29T05:21:31.565Z,16.88
2024-03-29T05:22:32.445Z,16.88
2024-03-29T05:23:33.611Z,16.88
2024-03-29T05:24:33.580Z,22.5
2024-03-29T05:25:34.072Z,22.5
2024-03-29T05:26:34.916Z,22.5
2024-03-29T05:27:37.162Z,22.5
2024-03-29T05:28:36.660Z,22.5
2024-03-29T05:29:36.984Z,22.5
2024-03-29T05:30:37.912Z,28.13
2024-03-29T05:31:38.964Z,28.13
2024-03-29T05:32:38.793Z,28.13
2024-03-29T05:33:39.704Z,28.13
2024-03-29T05:34:40.227Z,28.13
2024-03-29T05:35:41.136Z,33.75
2024-03-29T05:36:41.594Z,33.75
2024-03-29T05:37:42.300Z,33.75
2024-03-29T05:38:43.232Z,33.75
2024-03-29T05:39:43.926Z,33.75
2024-03-29T05:40:45.048Z,39.38
2024-03-29T05:41:44.936Z,39.38
2024-03-29T05:42:45.666Z,45
2024-03-29T05:43:46.557Z,45
2024-03-29T05:44:47.477Z,45
2024-03-29T05:45:48.194Z,45
2024-03-29T05:46:49.001Z,45
2024-03-29T05:47:50.021Z,45
2024-03-29T05:48:50.726Z,45
2024-03-29T05:49:51.670Z,45
2024-03-29T05:50:51.791Z,45
2024-03-29T05:51:52.695Z,45
2024-03-29T05:52:53.434Z,39.38
2024-03-29T05:53:54.196Z,39.38
2024-03-29T05:54:55.362Z,39.38
2024-03-29T05:55:56.052Z,39.38
2024-03-29T05:56:56.466Z,39.38
2024-03-29T05:57:57.413Z,45
2024-03-29T05:58:57.974Z,45
2024-03-29T05:59:58.493Z,50.63
2024-03-29T06:00:59.452Z,50.63
2024-03-29T06:02:00.154Z,45
2024-03-29T06:03:00.871Z,50.63
2024-03-29T06:04:01.787Z,50.63
2024-03-29T06:05:02.503Z,56.25
2024-03-29T06:06:03.231Z,56.25
2024-03-29T06:07:03.631Z,56.25
2024-03-29T06:08:04.349Z,67.5
2024-03-29T06:09:05.502Z,61.88
2024-03-29T06:10:05.224Z,73.13
2024-03-29T06:11:05.965Z,78.75
2024-03-29T06:12:06.657Z,73.13
2024-03-29T06:13:07.407Z,67.5
2024-03-29T06:14:08.119Z,73.13
2024-03-29T06:15:08.848Z,84.38
2024-03-29T06:16:09.752Z,225
2024-03-29T06:17:09.969Z,506.25
2024-03-29T06:18:11.078Z,1361.25
2024-03-29T06:19:11.192Z,1434.38
2024-03-29T06:20:11.132Z,1608.75
2024-03-29T06:21:11.458Z,1603.13
2024-03-29T06:22:12.484Z,1417.5
2024-03-29T06:23:14.541Z,1248.75
2024-03-29T06:24:13.697Z,1468.13
2024-03-29T06:25:13.474Z,1710
2024-03-29T06:26:14.205Z,1676.25
2024-03-29T06:27:14.644Z,1575
2024-03-29T06:28:15.774Z,1563.75
2024-03-29T06:29:15.349Z,1659.38
2024-03-29T06:30:16.357Z,1451.25
2024-03-29T06:31:17.293Z,1749.38
2024-03-29T06:32:17.224Z,1676.25
2024-03-29T06:33:18.320Z,1293.75
2024-03-29T06:34:17.859Z,1147.5
2024-03-29T06:35:18.630Z,1423.13
2024-03-29T06:36:19.355Z,1147.5
2024-03-29T06:37:19.614Z,894.38
2024-03-29T06:38:20.558Z,939.38
2024-03-29T06:39:21.737Z,1580.63
2024-03-29T06:40:22.491Z,1344.38
2024-03-29T06:41:23.923Z,1051.88
2024-03-29T06:42:23.092Z,1395
2024-03-29T06:43:24.081Z,1389.38
2024-03-29T06:44:24.741Z,1625.63
2024-03-29T06:45:25.488Z,1732.5
2024-03-29T06:46:26.022Z,1563.75
2024-03-29T06:47:27.385Z,1237.5
2024-03-29T06:48:26.887Z,984.38
2024-03-29T06:49:27.799Z,871.88
2024-03-29T06:50:27.864Z,1035
2024-03-29T06:51:29.040Z,1006.88
2024-03-29T06:52:29.178Z,618.75
2024-03-29T06:53:29.142Z,1068.75
2024-03-29T06:54:30.334Z,911.25
2024-03-29T06:55:29.880Z,596.25
2024-03-29T06:56:30.640Z,742.5
2024-03-29T06:57:31.502Z,720
2024-03-29T06:58:33.724Z,731.25
2024-03-29T06:59:32.570Z,708.75
2024-03-29T07:00:33.421Z,742.5
2024-03-29T07:01:34.199Z,613.13
2024-03-29T07:02:34.720Z,545.63
2024-03-29T07:03:35.846Z,292.5
2024-03-29T07:04:36.762Z,545.63
2024-03-29T07:05:36.495Z,720
2024-03-29T07:06:37.044Z,680.63
2024-03-29T07:07:37.315Z,511.88
2024-03-29T07:08:38.050Z,517.5
2024-03-29T07:09:39.234Z,675
2024-03-29T07:10:39.220Z,466.88
2024-03-29T07:11:41.127Z,466.88
2024-03-29T07:12:40.256Z,331.88
2024-03-29T07:13:41.192Z,292.5
2024-03-29T07:14:41.955Z,247.5
2024-03-29T07:15:42.400Z,202.5
2024-03-29T07:16:43.348Z,236.25
2024-03-29T07:17:43.901Z,270
2024-03-29T07:18:45.055Z,315
2024-03-29T07:19:44.824Z,281.25
2024-03-29T07:20:45.766Z,247.5
2024-03-29T07:21:45.671Z,225
2024-03-29T07:22:53.207Z,241.88
2024-03-29T07:23:47.046Z,264.38
2024-03-29T07:24:48.039Z,275.63
2024-03-29T07:25:48.987Z,309.38
2024-03-29T07:26:49.907Z,337.5
2024-03-29T07:27:50.592Z,247.5
2024-03-29T07:28:51.519Z,393.75
2024-03-29T07:29:52.021Z,489.38
2024-03-29T07:30:57.779Z,500.63
2024-03-29T07:31:54.014Z,489.38
2024-03-29T07:32:53.806Z,337.5
2024-03-29T07:33:54.349Z,247.5
2024-03-29T07:34:54.674Z,399.38
2024-03-29T07:35:55.593Z,315
2024-03-29T07:36:56.715Z,506.25
2024-03-29T07:37:57.171Z,483.75
2024-03-29T07:38:57.912Z,495
2024-03-29T07:39:58.697Z,483.75
2024-03-29T07:40:59.632Z,483.75
2024-03-29T07:42:00.556Z,444.38
2024-03-29T07:43:01.294Z,461.25
2024-03-29T07:44:02.451Z,472.5
2024-03-29T07:45:02.181Z,450
2024-03-29T07:46:02.923Z,444.38
2024-03-29T07:47:03.911Z,393.75
2024-03-29T07:48:04.353Z,354.38
2024-03-29T07:49:05.076Z,309.38
2024-03-29T07:50:06.039Z,320.63
2024-03-29T07:51:06.948Z,393.75
2024-03-29T07:52:07.431Z,348.75
2024-03-29T07:53:07.977Z,388.13
2024-03-29T07:54:08.917Z,410.63
2024-03-29T07:55:11.141Z,348.75
2024-03-29T07:56:09.436Z,326.25
2024-03-29T07:57:10.347Z,360
2024-03-29T07:58:11.021Z,315
2024-03-29T07:59:11.751Z,410.63
2024-03-29T08:00:12.511Z,196.88
2024-03-29T08:01:13.432Z,191.25
2024-03-29T08:02:14.347Z,286.88
2024-03-29T08:03:15.129Z,208.13
2024-03-29T08:04:15.647Z,196.88
2024-03-29T08:05:16.627Z,185.63
2024-03-29T08:06:18.001Z,219.38
2024-03-29T08:07:17.781Z,213.75
2024-03-29T08:08:18.275Z,258.75
2024-03-29T08:09:19.207Z,225
2024-03-29T08:10:22.066Z,264.38
2024-03-29T08:11:20.275Z,191.25
2024-03-29T08:12:21.080Z,354.38
2024-03-29T08:13:21.804Z,360
2024-03-29T08:14:22.832Z,371.25
2024-03-29T08:15:23.431Z,258.75
2024-03-29T08:16:26.327Z,286.88
2024-03-29T08:17:24.758Z,213.75
2024-03-29T08:18:25.076Z,427.5
2024-03-29T08:19:25.824Z,230.63
2024-03-29T08:20:26.582Z,225
2024-03-29T08:21:27.723Z,208.13
2024-03-29T08:22:27.445Z,185.63
2024-03-29T08:23:28.605Z,163.13
2024-03-29T08:24:29.552Z,168.75
2024-03-29T08:25:30.812Z,208.13
2024-03-29T08:26:30.798Z,168.75
2024-03-29T08:27:31.979Z,168.75
2024-03-29T08:28:32.824Z,163.13
2024-03-29T08:29:33.840Z,157.5
2024-03-29T08:30:34.592Z,157.5
2024-03-29T08:31:35.525Z,163.13
2024-03-29T08:32:36.468Z,163.13
2024-03-29T08:33:38.134Z,163.13
2024-03-29T08:34:37.238Z,157.5
2024-03-29T08:35:37.965Z,157.5
2024-03-29T08:36:41.650Z,163.13
2024-03-29T08:37:39.338Z,163.13
2024-03-29T08:38:39.574Z,163.13
2024-03-29T08:39:40.487Z,168.75
2024-03-29T08:40:41.261Z,174.38
2024-03-29T08:41:41.954Z,191.25
2024-03-29T08:42:42.702Z,202.5
2024-03-29T08:43:43.461Z,213.75
2024-03-29T08:44:44.856Z,253.13
2024-03-29T08:45:44.804Z,225
2024-03-29T08:46:45.911Z,225
2024-03-29T08:47:46.139Z,247.5
2024-03-29T08:48:48.795Z,253.13
2024-03-29T08:49:47.554Z,258.75
2024-03-29T08:50:48.071Z,281.25
2024-03-29T08:51:48.843Z,270
2024-03-29T08:52:49.760Z,236.25
2024-03-29T08:53:50.689Z,247.5
2024-03-29T08:54:51.219Z,230.63
2024-03-29T08:55:52.061Z,236.25
2024-03-29T08:56:52.809Z,253.13
2024-03-29T08:57:53.754Z,270
2024-03-29T08:58:53.731Z,281.25
2024-03-29T08:59:54.481Z,275.63
2024-03-29T09:00:56.334Z,337.5
2024-03-29T09:01:56.071Z,270
2024-03-29T09:02:56.804Z,286.88
2024-03-29T09:03:57.708Z,270
2024-03-29T09:04:58.223Z,360
2024-03-29T09:05:59.092Z,270
2024-03-29T09:07:00.045Z,275.63
2024-03-29T09:08:03.192Z,247.5
2024-03-29T09:09:01.058Z,247.5
2024-03-29T09:10:01.795Z,286.88
2024-03-29T09:11:02.579Z,275.63
2024-03-29T09:12:03.520Z,264.38
2024-03-29T09:13:04.230Z,270
2024-03-29T09:14:06.929Z,253.13
2024-03-29T09:15:05.730Z,241.88
2024-03-29T09:16:05.856Z,247.5
2024-03-29T09:17:06.760Z,253.13
2024-03-29T09:18:07.519Z,286.88
2024-03-29T09:19:07.742Z,270
2024-03-29T09:20:08.451Z,253.13
2024-03-29T09:21:09.158Z,247.5
2024-03-29T09:22:09.850Z,241.88
2024-03-29T09:23:10.569Z,241.88
2024-03-29T09:24:11.683Z,241.88
2024-03-29T09:25:11.669Z,275.63
2024-03-29T09:26:12.495Z,275.63
2024-03-29T09:27:13.428Z,281.25
2024-03-29T09:28:14.190Z,281.25
2024-03-29T09:29:14.791Z,281.25
2024-03-29T09:30:15.595Z,275.63
2024-03-29T09:31:16.167Z,270
2024-03-29T09:32:21.648Z,281.25
2024-03-29T09:33:17.422Z,292.5
2024-03-29T09:34:18.377Z,298.13
2024-03-29T09:35:19.538Z,315
2024-03-29T09:36:20.506Z,331.88
2024-03-29T09:37:21.062Z,315
2024-03-29T09:38:21.803Z,309.38
2024-03-29T09:39:22.263Z,298.13
2024-03-29T09:40:23.159Z,286.88
2024-03-29T09:41:24.126Z,331.88
2024-03-29T09:42:24.450Z,371.25
2024-03-29T09:43:43.908Z,298.13
2024-03-29T09:45:25.516Z,281.25
2024-03-29T09:46:26.228Z,270
2024-03-29T09:47:27.856Z,298.13
2024-03-29T09:48:27.587Z,286.88
2024-03-29T09:49:28.206Z,292.5
2024-03-29T09:50:28.879Z,270
2024-03-29T09:51:29.627Z,309.38
2024-03-29T09:52:30.552Z,315
2024-03-29T09:53:31.382Z,315
2024-03-29T09:54:32.314Z,281.25
2024-03-29T09:55:33.249Z,348.75
2024-03-29T09:56:34.059Z,337.5
2024-03-29T09:57:35.188Z,331.88
2024-03-29T09:58:35.136Z,275.63
2024-03-29T09:59:36.168Z,331.88
2024-03-29T10:00:37.168Z,275.63
2024-03-29T10:01:37.278Z,315
2024-03-29T10:02:36.890Z,331.88
2024-03-29T10:03:37.836Z,331.88
2024-03-29T10:04:38.739Z,326.25
2024-03-29T10:05:39.699Z,337.5
2024-03-29T10:06:40.405Z,354.38
2024-03-29T10:07:40.737Z,421.88
2024-03-29T10:08:41.894Z,416.25
2024-03-29T10:09:42.925Z,354.38
2024-03-29T10:10:42.885Z,388.13
2024-03-29T10:11:44.091Z,388.13
2024-03-29T10:12:47.035Z,365.63
2024-03-29T10:13:44.764Z,286.88
2024-03-29T10:14:45.741Z,286.88
2024-03-29T10:15:46.895Z,309.38
2024-03-29T10:16:46.807Z,315
2024-03-29T10:17:47.826Z,348.75
2024-03-29T10:18:48.751Z,365.63
2024-03-29T10:19:49.211Z,343.13
2024-03-29T10:20:49.748Z,354.38
2024-03-29T10:21:50.473Z,365.63
2024-03-29T10:22:51.008Z,337.5
2024-03-29T10:23:55.069Z,376.88
2024-03-29T10:24:52.978Z,376.88
2024-03-29T10:25:53.981Z,433.13
2024-03-29T10:26:53.975Z,416.25
2024-03-29T10:27:54.971Z,416.25
2024-03-29T10:28:55.694Z,438.75
2024-03-29T10:30:00.661Z,466.88
2024-03-29T10:30:57.483Z,365.63
2024-03-29T10:31:58.380Z,405
2024-03-29T10:32:58.993Z,343.13
2024-03-29T10:34:00.139Z,562.5
2024-03-29T10:35:00.867Z,495
2024-03-29T10:36:03.713Z,466.88
2024-03-29T10:37:02.047Z,663.75
2024-03-29T10:38:02.371Z,568.13
2024-03-29T10:39:03.293Z,641.25
2024-03-29T10:40:03.405Z,596.25
2024-03-29T10:41:03.932Z,590.63
2024-03-29T10:42:08.712Z,675
2024-03-29T10:43:05.419Z,759.38
2024-03-29T10:44:05.980Z,770.63
2024-03-29T10:45:06.811Z,528.75
2024-03-29T10:46:07.690Z,540
2024-03-29T10:47:09.512Z,427.5
2024-03-29T10:48:09.142Z,416.25
2024-03-29T10:49:10.074Z,298.13
2024-03-29T10:50:10.505Z,292.5
2024-03-29T10:51:11.423Z,360
2024-03-29T10:52:12.578Z,416.25
2024-03-29T10:53:12.716Z,444.38
2024-03-29T10:54:13.692Z,326.25
2024-03-29T10:55:13.618Z,421.88
2024-03-29T10:56:14.527Z,523.13
2024-03-29T10:57:15.498Z,562.5
2024-03-29T10:58:16.423Z,596.25
2024-03-29T10:59:16.943Z,624.38
2024-03-29T11:00:17.524Z,646.88
2024-03-29T11:01:18.949Z,691.88
2024-03-29T11:02:18.750Z,540
2024-03-29T11:03:19.718Z,376.88
2024-03-29T11:04:20.442Z,309.38
2024-03-29T11:05:21.166Z,635.63
2024-03-29T11:06:22.081Z,472.5
2024-03-29T11:07:22.820Z,478.13
2024-03-29T11:08:23.585Z,343.13
2024-03-29T11:09:24.321Z,731.25
2024-03-29T11:10:25.247Z,708.75
2024-03-29T11:11:26.018Z,708.75
2024-03-29T11:12:26.615Z,680.63
2024-03-29T11:13:27.527Z,641.25
2024-03-29T11:14:28.379Z,669.38
2024-03-29T11:15:29.300Z,675
2024-03-29T11:16:30.334Z,562.5
2024-03-29T11:17:31.278Z,528.75
2024-03-29T11:18:32.179Z,556.88
2024-03-29T11:19:33.099Z,635.63
2024-03-29T11:20:33.978Z,568.13
2024-03-29T11:21:34.880Z,613.13
2024-03-29T11:22:35.625Z,579.38
2024-03-29T11:23:36.591Z,646.88
2024-03-29T11:24:38.165Z,641.25
2024-03-29T11:25:38.101Z,669.38
2024-03-29T11:26:39.047Z,596.25
2024-03-29T11:27:40.020Z,607.5
2024-03-29T11:28:39.961Z,624.38
2024-03-29T11:29:40.878Z,703.13
2024-03-29T11:30:41.138Z,697.5
2024-03-29T11:31:41.326Z,691.88
2024-03-29T11:32:42.219Z,590.63
2024-03-29T11:33:42.876Z,630
2024-03-29T11:34:43.424Z,669.38
2024-03-29T11:35:44.408Z,590.63
2024-03-29T11:36:44.928Z,540
2024-03-29T11:37:45.870Z,545.63
2024-03-29T11:38:46.577Z,495
2024-03-29T11:39:47.324Z,551.25
2024-03-29T11:40:48.451Z,438.75
2024-03-29T11:41:49.590Z,545.63
2024-03-29T11:42:49.582Z,506.25
2024-03-29T11:43:50.736Z,624.38
2024-03-29T11:44:51.244Z,675
2024-03-29T11:45:52.194Z,658.13
2024-03-29T11:46:53.223Z,641.25
2024-03-29T11:47:54.423Z,646.88
2024-03-29T11:48:58.242Z,562.5
2024-03-29T11:49:56.172Z,483.75
2024-03-29T11:50:57.222Z,388.13
2024-03-29T11:51:58.132Z,371.25
2024-03-29T11:52:59.057Z,455.63
2024-03-29T11:53:59.606Z,483.75
2024-03-29T11:55:00.741Z,573.75
2024-03-29T11:56:00.774Z,551.25
2024-03-29T11:57:01.262Z,376.88
2024-03-29T11:58:02.262Z,607.5
2024-03-29T11:59:02.172Z,528.75
2024-03-29T12:00:03.103Z,388.13
2024-03-29T12:01:03.742Z,365.63
2024-03-29T12:02:04.494Z,551.25
2024-03-29T12:03:05.081Z,421.88
2024-03-29T12:04:05.813Z,613.13
2024-03-29T12:05:06.343Z,506.25
2024-03-29T12:06:07.077Z,573.75
2024-03-29T12:07:07.605Z,596.25
2024-03-29T12:08:08.353Z,596.25
2024-03-29T12:09:09.076Z,590.63
2024-03-29T12:10:10.368Z,590.63
2024-03-29T12:11:10.234Z,579.38
2024-03-29T12:12:11.159Z,585
2024-03-29T12:13:12.193Z,585
2024-03-29T12:14:13.191Z,568.13
2024-03-29T12:15:13.911Z,585
2024-03-29T12:16:14.642Z,545.63
2024-03-29T12:17:15.870Z,579.38
2024-03-29T12:18:16.158Z,573.75
2024-03-29T12:19:16.877Z,568.13
2024-03-29T12:20:17.625Z,568.13
2024-03-29T12:21:18.510Z,568.13
2024-03-29T12:22:19.441Z,562.5
2024-03-29T12:23:20.421Z,579.38
2024-03-29T12:24:21.175Z,540
2024-03-29T12:25:22.071Z,551.25
2024-03-29T12:26:22.988Z,421.88
2024-03-29T12:27:23.317Z,573.75
2024-03-29T12:28:24.307Z,590.63
2024-03-29T12:29:25.314Z,579.38
2024-03-29T12:30:26.066Z,545.63
2024-03-29T12:31:26.914Z,545.63
2024-03-29T12:32:28.062Z,376.88
2024-03-29T12:33:28.024Z,337.5
2024-03-29T12:34:28.565Z,461.25
2024-03-29T12:35:29.327Z,292.5
2024-03-29T12:36:30.090Z,506.25
2024-03-29T12:37:30.832Z,489.38
2024-03-29T12:38:31.525Z,517.5
2024-03-29T12:39:34.405Z,500.63
2024-03-29T12:40:32.249Z,528.75
2024-03-29T12:41:33.215Z,500.63
2024-03-29T12:42:34.325Z,455.63
2024-03-29T12:43:35.362Z,523.13
2024-03-29T12:44:35.095Z,545.63
2024-03-29T12:45:38.577Z,511.88
2024-03-29T12:46:36.464Z,506.25
2024-03-29T12:47:38.038Z,416.25
2024-03-29T12:48:37.916Z,354.38
2024-03-29T12:49:38.429Z,416.25
2024-03-29T12:50:39.219Z,382.5
2024-03-29T12:51:43.102Z,388.13
2024-03-29T12:52:40.827Z,466.88
2024-03-29T12:53:41.754Z,365.63
2024-03-29T12:54:42.279Z,360
2024-03-29T12:55:42.578Z,258.75
2024-03-29T12:56:43.281Z,236.25
2024-03-29T12:57:46.111Z,208.13
2024-03-29T12:58:45.042Z,174.38
2024-03-29T12:59:44.815Z,219.38
2024-03-29T13:00:45.769Z,421.88
2024-03-29T13:01:46.462Z,421.88
2024-03-29T13:02:47.216Z,410.63
2024-03-29T13:03:51.213Z,405
2024-03-29T13:04:49.179Z,410.63
2024-03-29T13:05:49.915Z,410.63
2024-03-29T13:06:50.435Z,382.5
2024-03-29T13:07:51.790Z,376.88
2024-03-29T13:08:51.331Z,281.25
2024-03-29T13:09:52.271Z,405
2024-03-29T13:10:53.260Z,405
2024-03-29T13:11:53.097Z,360
2024-03-29T13:12:53.655Z,376.88
2024-03-29T13:13:54.856Z,354.38
2024-03-29T13:14:58.612Z,213.75
2024-03-29T13:15:55.468Z,337.5
2024-03-29T13:16:56.383Z,376.88
2024-03-29T13:17:57.569Z,393.75
2024-03-29T13:18:58.294Z,388.13
2024-03-29T13:19:58.838Z,388.13
2024-03-29T13:20:59.398Z,393.75
2024-03-29T13:22:00.275Z,399.38
2024-03-29T13:23:00.981Z,399.38
2024-03-29T13:24:02.077Z,405
2024-03-29T13:25:02.192Z,399.38
2024-03-29T13:26:02.689Z,399.38
2024-03-29T13:27:03.590Z,388.13
2024-03-29T13:28:04.704Z,399.38
2024-03-29T13:29:04.683Z,410.63
2024-03-29T13:30:05.416Z,393.75
2024-03-29T13:31:05.962Z,393.75
2024-03-29T13:32:06.994Z,270
2024-03-29T13:33:07.740Z,241.88
2024-03-29T13:34:08.843Z,208.13
2024-03-29T13:35:09.802Z,292.5
2024-03-29T13:36:10.507Z,331.88